<?xml version="1.0" encoding="UTF-8" standalone="no" ?><gpx xmlns="http://www.topografix.com/GPX/1/1" xmlns:gpxx="http://www.garmin.com/xmlschemas/GpxExtensions/v3" xmlns:wptx1="http://www.garmin.com/xmlschemas/WaypointExtension/v1" xmlns:gpxtpx="http://www.garmin.com/xmlschemas/TrackPointExtension/v1" creator="GuideVTT.com" version="1.1" xmlns:xsi="http://www.w3.org/2001/XMLSchema-instance" xsi:schemaLocation="http://www.topografix.com/GPX/1/1 http://www.topografix.com/GPX/1/1/gpx.xsd http://www.garmin.com/xmlschemas/GpxExtensions/v3 http://www8.garmin.com/xmlschemas/GpxExtensionsv3.xsd http://www.garmin.com/xmlschemas/WaypointExtension/v1 http://www8.garmin.com/xmlschemas/WaypointExtensionv1.xsd http://www.garmin.com/xmlschemas/TrackPointExtension/v1 http://www.garmin.com/xmlschemas/TrackPointExtensionv1.xsd">
<metadata><link href="http://www.garmin.com"><text>Garmin International</text></link><time>2013-06-22T15:13:50Z</time></metadata>
<trk><name>dgap-rando1.gpx</name><extensions><gpxx:TrackExtension><gpxx:DisplayColor>Cyan</gpxx:DisplayColor></gpxx:TrackExtension></extensions><trkseg>
<trkpt lat="44.89991010" lon="5.01926010"><ele></ele><time>2014-4-20T16:43:42Z</time></trkpt>
<trkpt lat="44.90161810" lon="5.02051770"><ele></ele><time>2014-4-20T16:43:45Z</time></trkpt>
<trkpt lat="44.90263290" lon="5.02227610"><ele></ele><time>2014-4-20T16:43:48Z</time></trkpt>
<trkpt lat="44.90305720" lon="5.02425930"><ele></ele><time>2014-4-20T16:43:51Z</time></trkpt>
<trkpt lat="44.90293690" lon="5.02735610"><ele></ele><time>2014-4-20T16:43:54Z</time></trkpt>
<trkpt lat="44.90173670" lon="5.02859620"><ele></ele><time>2014-4-20T16:43:57Z</time></trkpt>
<trkpt lat="44.89936440" lon="5.03269230"><ele></ele><time>2014-4-20T16:44:0Z</time></trkpt>
<trkpt lat="44.89778760" lon="5.03369240"><ele></ele><time>2014-4-20T16:44:3Z</time></trkpt>
<trkpt lat="44.89709660" lon="5.03619150"><ele></ele><time>2014-4-20T16:44:6Z</time></trkpt>
<trkpt lat="44.89458230" lon="5.04331880"><ele></ele><time>2014-4-20T16:44:9Z</time></trkpt>
<trkpt lat="44.89356330" lon="5.04542190"><ele></ele><time>2014-4-20T16:44:12Z</time></trkpt>
<trkpt lat="44.89302160" lon="5.04916240"><ele></ele><time>2014-4-20T16:44:15Z</time></trkpt>
<trkpt lat="44.89089490" lon="5.05421840"><ele></ele><time>2014-4-20T16:44:18Z</time></trkpt>
<trkpt lat="44.89063510" lon="5.05654810"><ele></ele><time>2014-4-20T16:44:21Z</time></trkpt>
<trkpt lat="44.89081170" lon="5.05760120"><ele></ele><time>2014-4-20T16:44:24Z</time></trkpt>
<trkpt lat="44.88903900" lon="5.06105980"><ele></ele><time>2014-4-20T16:44:27Z</time></trkpt>
<trkpt lat="44.88777920" lon="5.06470150"><ele></ele><time>2014-4-20T16:44:30Z</time></trkpt>
<trkpt lat="44.88522560" lon="5.06970400"><ele></ele><time>2014-4-20T16:44:33Z</time></trkpt>
<trkpt lat="44.88321910" lon="5.07077680"><ele></ele><time>2014-4-20T16:44:36Z</time></trkpt>
<trkpt lat="44.88179980" lon="5.07266950"><ele></ele><time>2014-4-20T16:44:39Z</time></trkpt>
<trkpt lat="44.88140350" lon="5.07049810"><ele></ele><time>2014-4-20T16:44:42Z</time></trkpt>
<trkpt lat="44.88100290" lon="5.07032020"><ele></ele><time>2014-4-20T16:44:45Z</time></trkpt>
<trkpt lat="44.88018210" lon="5.07075480"><ele></ele><time>2014-4-20T16:44:48Z</time></trkpt>
<trkpt lat="44.87899910" lon="5.06946270"><ele></ele><time>2014-4-20T16:44:51Z</time></trkpt>
<trkpt lat="44.87875330" lon="5.07030510"><ele></ele><time>2014-4-20T16:44:54Z</time></trkpt>
<trkpt lat="44.87671940" lon="5.06884490"><ele></ele><time>2014-4-20T16:44:57Z</time></trkpt>
<trkpt lat="44.87535940" lon="5.06833540"><ele></ele><time>2014-4-20T16:45:0Z</time></trkpt>
<trkpt lat="44.87456430" lon="5.06864460"><ele></ele><time>2014-4-20T16:45:3Z</time></trkpt>
<trkpt lat="44.87261310" lon="5.06839090"><ele></ele><time>2014-4-20T16:45:6Z</time></trkpt>
<trkpt lat="44.87179080" lon="5.06888870"><ele></ele><time>2014-4-20T16:45:9Z</time></trkpt>
<trkpt lat="44.86809700" lon="5.06722100"><ele></ele><time>2014-4-20T16:45:12Z</time></trkpt>
<trkpt lat="44.86581400" lon="5.06764730"><ele></ele><time>2014-4-20T16:45:15Z</time></trkpt>
<trkpt lat="44.86343030" lon="5.06759410"><ele></ele><time>2014-4-20T16:45:18Z</time></trkpt>
<trkpt lat="44.86118400" lon="5.06653530"><ele></ele><time>2014-4-20T16:45:21Z</time></trkpt>
<trkpt lat="44.86066160" lon="5.06673120"><ele></ele><time>2014-4-20T16:45:24Z</time></trkpt>
<trkpt lat="44.86035860" lon="5.06715930"><ele></ele><time>2014-4-20T16:45:27Z</time></trkpt>
<trkpt lat="44.85856790" lon="5.06586970"><ele></ele><time>2014-4-20T16:45:30Z</time></trkpt>
<trkpt lat="44.85777910" lon="5.06592610"><ele></ele><time>2014-4-20T16:45:33Z</time></trkpt>
<trkpt lat="44.85720240" lon="5.06649900"><ele></ele><time>2014-4-20T16:45:36Z</time></trkpt>
<trkpt lat="44.85503720" lon="5.06670950"><ele></ele><time>2014-4-20T16:45:39Z</time></trkpt>
<trkpt lat="44.84968590" lon="5.06929480"><ele></ele><time>2014-4-20T16:45:42Z</time></trkpt>
<trkpt lat="44.84219150" lon="5.06937130"><ele></ele><time>2014-4-20T16:45:45Z</time></trkpt>
<trkpt lat="44.83875090" lon="5.07293460"><ele></ele><time>2014-4-20T16:45:48Z</time></trkpt>
<trkpt lat="44.83627450" lon="5.07480560"><ele></ele><time>2014-4-20T16:45:51Z</time></trkpt>
<trkpt lat="44.83470830" lon="5.07808070"><ele></ele><time>2014-4-20T16:45:54Z</time></trkpt>
<trkpt lat="44.83326270" lon="5.07921140"><ele></ele><time>2014-4-20T16:45:57Z</time></trkpt>
<trkpt lat="44.83235550" lon="5.07859780"><ele></ele><time>2014-4-20T16:46:0Z</time></trkpt>
<trkpt lat="44.83173070" lon="5.07929440"><ele></ele><time>2014-4-20T16:46:3Z</time></trkpt>
<trkpt lat="44.83141350" lon="5.08029060"><ele></ele><time>2014-4-20T16:46:6Z</time></trkpt>
<trkpt lat="44.83110740" lon="5.08264700"><ele></ele><time>2014-4-20T16:46:9Z</time></trkpt>
<trkpt lat="44.83272350" lon="5.08822820"><ele></ele><time>2014-4-20T16:46:12Z</time></trkpt>
<trkpt lat="44.83461470" lon="5.08908020"><ele></ele><time>2014-4-20T16:46:15Z</time></trkpt>
<trkpt lat="44.83531260" lon="5.09177070"><ele></ele><time>2014-4-20T16:46:18Z</time></trkpt>
<trkpt lat="44.83601050" lon="5.09265890"><ele></ele><time>2014-4-20T16:46:21Z</time></trkpt>
<trkpt lat="44.84105920" lon="5.09410950"><ele></ele><time>2014-4-20T16:46:24Z</time></trkpt>
<trkpt lat="44.84330720" lon="5.09418880"><ele></ele><time>2014-4-20T16:46:27Z</time></trkpt>
<trkpt lat="44.84361120" lon="5.09553210"><ele></ele><time>2014-4-20T16:46:30Z</time></trkpt>
<trkpt lat="44.84487360" lon="5.09543620"><ele></ele><time>2014-4-20T16:46:33Z</time></trkpt>
<trkpt lat="44.84409690" lon="5.09590390"><ele></ele><time>2014-4-20T16:46:36Z</time></trkpt>
<trkpt lat="44.84258730" lon="5.09779020"><ele></ele><time>2014-4-20T16:46:39Z</time></trkpt>
<trkpt lat="44.84227930" lon="5.09840750"><ele></ele><time>2014-4-20T16:46:42Z</time></trkpt>
<trkpt lat="44.83906890" lon="5.09992500"><ele></ele><time>2014-4-20T16:46:45Z</time></trkpt>
<trkpt lat="44.83737950" lon="5.09999960"><ele></ele><time>2014-4-20T16:46:48Z</time></trkpt>
<trkpt lat="44.83785210" lon="5.10179380"><ele></ele><time>2014-4-20T16:46:51Z</time></trkpt>
<trkpt lat="44.83782400" lon="5.10381630"><ele></ele><time>2014-4-20T16:46:54Z</time></trkpt>
<trkpt lat="44.83726040" lon="5.10565420"><ele></ele><time>2014-4-20T16:46:57Z</time></trkpt>
<trkpt lat="44.83536830" lon="5.10663560"><ele></ele><time>2014-4-20T16:47:0Z</time></trkpt>
<trkpt lat="44.83412230" lon="5.10787030"><ele></ele><time>2014-4-20T16:47:3Z</time></trkpt>
<trkpt lat="44.83310470" lon="5.10807290"><ele></ele><time>2014-4-20T16:47:6Z</time></trkpt>
<trkpt lat="44.83111260" lon="5.10765790"><ele></ele><time>2014-4-20T16:47:9Z</time></trkpt>
<trkpt lat="44.82942850" lon="5.10662590"><ele></ele><time>2014-4-20T16:47:12Z</time></trkpt>
<trkpt lat="44.82890850" lon="5.10672660"><ele></ele><time>2014-4-20T16:47:15Z</time></trkpt>
<trkpt lat="44.82802840" lon="5.10772640"><ele></ele><time>2014-4-20T16:47:18Z</time></trkpt>
<trkpt lat="44.82730380" lon="5.10791180"><ele></ele><time>2014-4-20T16:47:21Z</time></trkpt>
<trkpt lat="44.82622800" lon="5.10684680"><ele></ele><time>2014-4-20T16:47:24Z</time></trkpt>
<trkpt lat="44.82509730" lon="5.10707530"><ele></ele><time>2014-4-20T16:47:27Z</time></trkpt>
<trkpt lat="44.82440570" lon="5.10773660"><ele></ele><time>2014-4-20T16:47:30Z</time></trkpt>
<trkpt lat="44.82367020" lon="5.10924930"><ele></ele><time>2014-4-20T16:47:33Z</time></trkpt>
<trkpt lat="44.82307960" lon="5.10947290"><ele></ele><time>2014-4-20T16:47:36Z</time></trkpt>
<trkpt lat="44.82295220" lon="5.11006730"><ele></ele><time>2014-4-20T16:47:39Z</time></trkpt>
<trkpt lat="44.82163160" lon="5.11158250"><ele></ele><time>2014-4-20T16:47:42Z</time></trkpt>
<trkpt lat="44.82064010" lon="5.11343010"><ele></ele><time>2014-4-20T16:47:45Z</time></trkpt>
<trkpt lat="44.81818110" lon="5.11637440"><ele></ele><time>2014-4-20T16:47:48Z</time></trkpt>
<trkpt lat="44.81754330" lon="5.11757560"><ele></ele><time>2014-4-20T16:47:51Z</time></trkpt>
<trkpt lat="44.81736610" lon="5.11835700"><ele></ele><time>2014-4-20T16:47:54Z</time></trkpt>
<trkpt lat="44.81774280" lon="5.11948220"><ele></ele><time>2014-4-20T16:47:57Z</time></trkpt>
<trkpt lat="44.81747250" lon="5.12038550"><ele></ele><time>2014-4-20T16:48:0Z</time></trkpt>
<trkpt lat="44.81736780" lon="5.12275110"><ele></ele><time>2014-4-20T16:48:3Z</time></trkpt>
<trkpt lat="44.81703490" lon="5.12346160"><ele></ele><time>2014-4-20T16:48:6Z</time></trkpt>
<trkpt lat="44.81940210" lon="5.12595050"><ele></ele><time>2014-4-20T16:48:9Z</time></trkpt>
<trkpt lat="44.82048720" lon="5.12663690"><ele></ele><time>2014-4-20T16:48:12Z</time></trkpt>
<trkpt lat="44.81895430" lon="5.12675010"><ele></ele><time>2014-4-20T16:48:15Z</time></trkpt>
<trkpt lat="44.81788220" lon="5.12732890"><ele></ele><time>2014-4-20T16:48:18Z</time></trkpt>
<trkpt lat="44.81606300" lon="5.12897670"><ele></ele><time>2014-4-20T16:48:21Z</time></trkpt>
<trkpt lat="44.81400720" lon="5.13197190"><ele></ele><time>2014-4-20T16:48:24Z</time></trkpt>
<trkpt lat="44.81296400" lon="5.13229910"><ele></ele><time>2014-4-20T16:48:27Z</time></trkpt>
<trkpt lat="44.80689140" lon="5.13752660"><ele></ele><time>2014-4-20T16:48:30Z</time></trkpt>
<trkpt lat="44.80575900" lon="5.13781760"><ele></ele><time>2014-4-20T16:48:33Z</time></trkpt>
<trkpt lat="44.80462260" lon="5.13738140"><ele></ele><time>2014-4-20T16:48:36Z</time></trkpt>
<trkpt lat="44.80404140" lon="5.13545610"><ele></ele><time>2014-4-20T16:48:39Z</time></trkpt>
<trkpt lat="44.80361290" lon="5.13549780"><ele></ele><time>2014-4-20T16:48:42Z</time></trkpt>
<trkpt lat="44.80326370" lon="5.13506950"><ele></ele><time>2014-4-20T16:48:45Z</time></trkpt>
<trkpt lat="44.80335050" lon="5.13608520"><ele></ele><time>2014-4-20T16:48:48Z</time></trkpt>
<trkpt lat="44.80270840" lon="5.13478890"><ele></ele><time>2014-4-20T16:48:51Z</time></trkpt>
<trkpt lat="44.80304000" lon="5.13768140"><ele></ele><time>2014-4-20T16:48:54Z</time></trkpt>
<trkpt lat="44.80231600" lon="5.13694990"><ele></ele><time>2014-4-20T16:48:57Z</time></trkpt>
<trkpt lat="44.80281450" lon="5.13858670"><ele></ele><time>2014-4-20T16:49:0Z</time></trkpt>
<trkpt lat="44.80325110" lon="5.13911420"><ele></ele><time>2014-4-20T16:49:3Z</time></trkpt>
<trkpt lat="44.80261950" lon="5.13917740"><ele></ele><time>2014-4-20T16:49:6Z</time></trkpt>
<trkpt lat="44.80205370" lon="5.13930700"><ele></ele><time>2014-4-20T16:49:9Z</time></trkpt>
<trkpt lat="44.80044210" lon="5.13808860"><ele></ele><time>2014-4-20T16:49:12Z</time></trkpt>
<trkpt lat="44.79826400" lon="5.13791640"><ele></ele><time>2014-4-20T16:49:15Z</time></trkpt>
<trkpt lat="44.79731850" lon="5.13616260"><ele></ele><time>2014-4-20T16:49:18Z</time></trkpt>
<trkpt lat="44.79716770" lon="5.13678710"><ele></ele><time>2014-4-20T16:49:21Z</time></trkpt>
<trkpt lat="44.79647510" lon="5.13747920"><ele></ele><time>2014-4-20T16:49:24Z</time></trkpt>
<trkpt lat="44.79629380" lon="5.13841810"><ele></ele><time>2014-4-20T16:49:27Z</time></trkpt>
<trkpt lat="44.79561010" lon="5.13964790"><ele></ele><time>2014-4-20T16:49:30Z</time></trkpt>
<trkpt lat="44.79535640" lon="5.13900320"><ele></ele><time>2014-4-20T16:49:33Z</time></trkpt>
<trkpt lat="44.79413420" lon="5.14105910"><ele></ele><time>2014-4-20T16:49:36Z</time></trkpt>
<trkpt lat="44.79137190" lon="5.14262690"><ele></ele><time>2014-4-20T16:49:39Z</time></trkpt>
<trkpt lat="44.79116400" lon="5.14372240"><ele></ele><time>2014-4-20T16:49:42Z</time></trkpt>
<trkpt lat="44.78994250" lon="5.14486180"><ele></ele><time>2014-4-20T16:49:45Z</time></trkpt>
<trkpt lat="44.79013190" lon="5.14537680"><ele></ele><time>2014-4-20T16:49:48Z</time></trkpt>
<trkpt lat="44.78959980" lon="5.14683510"><ele></ele><time>2014-4-20T16:49:51Z</time></trkpt>
<trkpt lat="44.78909660" lon="5.14715740"><ele></ele><time>2014-4-20T16:49:54Z</time></trkpt>
<trkpt lat="44.78850580" lon="5.14826520"><ele></ele><time>2014-4-20T16:49:57Z</time></trkpt>
<trkpt lat="44.78873690" lon="5.14890870"><ele></ele><time>2014-4-20T16:50:0Z</time></trkpt>
<trkpt lat="44.78968960" lon="5.14860900"><ele></ele><time>2014-4-20T16:50:3Z</time></trkpt>
<trkpt lat="44.79109080" lon="5.14924820"><ele></ele><time>2014-4-20T16:50:6Z</time></trkpt>
<trkpt lat="44.79187150" lon="5.15127810"><ele></ele><time>2014-4-20T16:50:9Z</time></trkpt>
<trkpt lat="44.79357120" lon="5.15344910"><ele></ele><time>2014-4-20T16:50:12Z</time></trkpt>
<trkpt lat="44.79534790" lon="5.15436010"><ele></ele><time>2014-4-20T16:50:15Z</time></trkpt>
<trkpt lat="44.79542810" lon="5.15474340"><ele></ele><time>2014-4-20T16:50:18Z</time></trkpt>
<trkpt lat="44.79596340" lon="5.15492830"><ele></ele><time>2014-4-20T16:50:21Z</time></trkpt>
<trkpt lat="44.79624480" lon="5.15712290"><ele></ele><time>2014-4-20T16:50:24Z</time></trkpt>
<trkpt lat="44.79811550" lon="5.15788090"><ele></ele><time>2014-4-20T16:50:27Z</time></trkpt>
<trkpt lat="44.79999080" lon="5.15933430"><ele></ele><time>2014-4-20T16:50:30Z</time></trkpt>
<trkpt lat="44.80174990" lon="5.16005510"><ele></ele><time>2014-4-20T16:50:33Z</time></trkpt>
<trkpt lat="44.80380890" lon="5.16224500"><ele></ele><time>2014-4-20T16:50:36Z</time></trkpt>
<trkpt lat="44.80377610" lon="5.16176920"><ele></ele><time>2014-4-20T16:50:39Z</time></trkpt>
<trkpt lat="44.80484020" lon="5.16239190"><ele></ele><time>2014-4-20T16:50:42Z</time></trkpt>
<trkpt lat="44.80924370" lon="5.16703940"><ele></ele><time>2014-4-20T16:50:45Z</time></trkpt>
<trkpt lat="44.81012470" lon="5.16777930"><ele></ele><time>2014-4-20T16:50:48Z</time></trkpt>
<trkpt lat="44.81137440" lon="5.16730520"><ele></ele><time>2014-4-20T16:50:51Z</time></trkpt>
<trkpt lat="44.81227760" lon="5.16542280"><ele></ele><time>2014-4-20T16:50:54Z</time></trkpt>
<trkpt lat="44.81297830" lon="5.16530020"><ele></ele><time>2014-4-20T16:50:57Z</time></trkpt>
<trkpt lat="44.81282730" lon="5.16592470"><ele></ele><time>2014-4-20T16:51:0Z</time></trkpt>
<trkpt lat="44.81342510" lon="5.16630270"><ele></ele><time>2014-4-20T16:51:3Z</time></trkpt>
<trkpt lat="44.81715490" lon="5.16475270"><ele></ele><time>2014-4-20T16:51:6Z</time></trkpt>
<trkpt lat="44.81953360" lon="5.16499940"><ele></ele><time>2014-4-20T16:51:9Z</time></trkpt>
<trkpt lat="44.81976360" lon="5.16656010"><ele></ele><time>2014-4-20T16:51:12Z</time></trkpt>
<trkpt lat="44.81928120" lon="5.16694670"><ele></ele><time>2014-4-20T16:51:15Z</time></trkpt>
<trkpt lat="44.81842970" lon="5.16680880"><ele></ele><time>2014-4-20T16:51:18Z</time></trkpt>
<trkpt lat="44.81722500" lon="5.16728520"><ele></ele><time>2014-4-20T16:51:21Z</time></trkpt>
<trkpt lat="44.81848730" lon="5.16807620"><ele></ele><time>2014-4-20T16:51:24Z</time></trkpt>
<trkpt lat="44.81838360" lon="5.16860840"><ele></ele><time>2014-4-20T16:51:27Z</time></trkpt>
<trkpt lat="44.81973710" lon="5.17022600"><ele></ele><time>2014-4-20T16:51:30Z</time></trkpt>
<trkpt lat="44.82140380" lon="5.17103760"><ele></ele><time>2014-4-20T16:51:33Z</time></trkpt>
<trkpt lat="44.82469370" lon="5.17348070"><ele></ele><time>2014-4-20T16:51:36Z</time></trkpt>
<trkpt lat="44.82654610" lon="5.17319530"><ele></ele><time>2014-4-20T16:51:39Z</time></trkpt>
<trkpt lat="44.82858640" lon="5.17522750"><ele></ele><time>2014-4-20T16:51:42Z</time></trkpt>
<trkpt lat="44.83072900" lon="5.17590540"><ele></ele><time>2014-4-20T16:51:45Z</time></trkpt>
<trkpt lat="44.83141700" lon="5.17540280"><ele></ele><time>2014-4-20T16:51:48Z</time></trkpt>
<trkpt lat="44.83343340" lon="5.17661190"><ele></ele><time>2014-4-20T16:51:51Z</time></trkpt>
<trkpt lat="44.83475930" lon="5.17667930"><ele></ele><time>2014-4-20T16:51:54Z</time></trkpt>
<trkpt lat="44.84074340" lon="5.17846970"><ele></ele><time>2014-4-20T16:51:57Z</time></trkpt>
<trkpt lat="44.84115330" lon="5.17915470"><ele></ele><time>2014-4-20T16:52:0Z</time></trkpt>
<trkpt lat="44.84377650" lon="5.18039500"><ele></ele><time>2014-4-20T16:52:3Z</time></trkpt>
<trkpt lat="44.84485270" lon="5.18054460"><ele></ele><time>2014-4-20T16:52:6Z</time></trkpt>
<trkpt lat="44.84533840" lon="5.18003170"><ele></ele><time>2014-4-20T16:52:9Z</time></trkpt>
<trkpt lat="44.84589530" lon="5.18024980"><ele></ele><time>2014-4-20T16:52:12Z</time></trkpt>
<trkpt lat="44.84779830" lon="5.17974560"><ele></ele><time>2014-4-20T16:52:15Z</time></trkpt>
<trkpt lat="44.84996100" lon="5.18051980"><ele></ele><time>2014-4-20T16:52:18Z</time></trkpt>
<trkpt lat="44.85168890" lon="5.18070260"><ele></ele><time>2014-4-20T16:52:21Z</time></trkpt>
<trkpt lat="44.85480400" lon="5.18206320"><ele></ele><time>2014-4-20T16:52:24Z</time></trkpt>
<trkpt lat="44.85760670" lon="5.18157320"><ele></ele><time>2014-4-20T16:52:27Z</time></trkpt>
<trkpt lat="44.85868080" lon="5.18093190"><ele></ele><time>2014-4-20T16:52:30Z</time></trkpt>
<trkpt lat="44.85979950" lon="5.18117870"><ele></ele><time>2014-4-20T16:52:33Z</time></trkpt>
<trkpt lat="44.85891660" lon="5.18138680"><ele></ele><time>2014-4-20T16:52:36Z</time></trkpt>
<trkpt lat="44.85575200" lon="5.18369320"><ele></ele><time>2014-4-20T16:52:39Z</time></trkpt>
<trkpt lat="44.85675260" lon="5.18415540"><ele></ele><time>2014-4-20T16:52:42Z</time></trkpt>
<trkpt lat="44.85589140" lon="5.18439630"><ele></ele><time>2014-4-20T16:52:45Z</time></trkpt>
<trkpt lat="44.85494070" lon="5.18548670"><ele></ele><time>2014-4-20T16:52:48Z</time></trkpt>
<trkpt lat="44.85048170" lon="5.18737870"><ele></ele><time>2014-4-20T16:52:51Z</time></trkpt>
<trkpt lat="44.84683040" lon="5.18848930"><ele></ele><time>2014-4-20T16:52:54Z</time></trkpt>
<trkpt lat="44.84643780" lon="5.18888040"><ele></ele><time>2014-4-20T16:52:57Z</time></trkpt>
<trkpt lat="44.84498940" lon="5.18833210"><ele></ele><time>2014-4-20T16:53:0Z</time></trkpt>
<trkpt lat="44.84414440" lon="5.18794110"><ele></ele><time>2014-4-20T16:53:3Z</time></trkpt>
<trkpt lat="44.84300210" lon="5.18861030"><ele></ele><time>2014-4-20T16:53:6Z</time></trkpt>
<trkpt lat="44.84250860" lon="5.18855350"><ele></ele><time>2014-4-20T16:53:9Z</time></trkpt>
<trkpt lat="44.84229450" lon="5.18813140"><ele></ele><time>2014-4-20T16:53:12Z</time></trkpt>
<trkpt lat="44.84059570" lon="5.18943630"><ele></ele><time>2014-4-20T16:53:15Z</time></trkpt>
<trkpt lat="44.83869870" lon="5.18883350"><ele></ele><time>2014-4-20T16:53:18Z</time></trkpt>
<trkpt lat="44.83769960" lon="5.18656880"><ele></ele><time>2014-4-20T16:53:21Z</time></trkpt>
<trkpt lat="44.83694420" lon="5.18706790"><ele></ele><time>2014-4-20T16:53:24Z</time></trkpt>
<trkpt lat="44.83783200" lon="5.18667050"><ele></ele><time>2014-4-20T16:53:27Z</time></trkpt>
<trkpt lat="44.83859040" lon="5.18866990"><ele></ele><time>2014-4-20T16:53:30Z</time></trkpt>
<trkpt lat="44.83992560" lon="5.18924400"><ele></ele><time>2014-4-20T16:53:33Z</time></trkpt>
<trkpt lat="44.84175720" lon="5.18889470"><ele></ele><time>2014-4-20T16:53:36Z</time></trkpt>
<trkpt lat="44.84224260" lon="5.18926730"><ele></ele><time>2014-4-20T16:53:39Z</time></trkpt>
<trkpt lat="44.84231340" lon="5.19088390"><ele></ele><time>2014-4-20T16:53:42Z</time></trkpt>
<trkpt lat="44.84345540" lon="5.19283980"><ele></ele><time>2014-4-20T16:53:45Z</time></trkpt>
<trkpt lat="44.84531270" lon="5.19410500"><ele></ele><time>2014-4-20T16:53:48Z</time></trkpt>
<trkpt lat="44.84598640" lon="5.19502500"><ele></ele><time>2014-4-20T16:53:51Z</time></trkpt>
<trkpt lat="44.84617020" lon="5.19835550"><ele></ele><time>2014-4-20T16:53:54Z</time></trkpt>
<trkpt lat="44.84661510" lon="5.19942200"><ele></ele><time>2014-4-20T16:53:57Z</time></trkpt>
<trkpt lat="44.84689570" lon="5.20161880"><ele></ele><time>2014-4-20T16:54:0Z</time></trkpt>
<trkpt lat="44.84809950" lon="5.20465380"><ele></ele><time>2014-4-20T16:54:3Z</time></trkpt>
<trkpt lat="44.84824400" lon="5.20602130"><ele></ele><time>2014-4-20T16:54:6Z</time></trkpt>
<trkpt lat="44.85016480" lon="5.20830250"><ele></ele><time>2014-4-20T16:54:9Z</time></trkpt>
<trkpt lat="44.85013030" lon="5.20962920"><ele></ele><time>2014-4-20T16:54:12Z</time></trkpt>
<trkpt lat="44.85060770" lon="5.21117210"><ele></ele><time>2014-4-20T16:54:15Z</time></trkpt>
<trkpt lat="44.84994590" lon="5.21325730"><ele></ele><time>2014-4-20T16:54:18Z</time></trkpt>
<trkpt lat="44.85032570" lon="5.21422580"><ele></ele><time>2014-4-20T16:54:21Z</time></trkpt>
<trkpt lat="44.85151520" lon="5.21520440"><ele></ele><time>2014-4-20T16:54:24Z</time></trkpt>
<trkpt lat="44.85295410" lon="5.21784080"><ele></ele><time>2014-4-20T16:54:27Z</time></trkpt>
<trkpt lat="44.85212210" lon="5.21868360"><ele></ele><time>2014-4-20T16:54:30Z</time></trkpt>
<trkpt lat="44.85137970" lon="5.21867700"><ele></ele><time>2014-4-20T16:54:33Z</time></trkpt>
<trkpt lat="44.85067360" lon="5.21728040"><ele></ele><time>2014-4-20T16:54:36Z</time></trkpt>
<trkpt lat="44.84973120" lon="5.21631450"><ele></ele><time>2014-4-20T16:54:39Z</time></trkpt>
<trkpt lat="44.84880620" lon="5.21813310"><ele></ele><time>2014-4-20T16:54:42Z</time></trkpt>
<trkpt lat="44.84845220" lon="5.21703940"><ele></ele><time>2014-4-20T16:54:45Z</time></trkpt>
<trkpt lat="44.84729140" lon="5.21754890"><ele></ele><time>2014-4-20T16:54:48Z</time></trkpt>
<trkpt lat="44.84608700" lon="5.21713890"><ele></ele><time>2014-4-20T16:54:51Z</time></trkpt>
<trkpt lat="44.84479630" lon="5.21745200"><ele></ele><time>2014-4-20T16:54:54Z</time></trkpt>
<trkpt lat="44.84135030" lon="5.21585120"><ele></ele><time>2014-4-20T16:54:57Z</time></trkpt>
<trkpt lat="44.84375530" lon="5.21508950"><ele></ele><time>2014-4-20T16:55:0Z</time></trkpt>
<trkpt lat="44.84009750" lon="5.21471140"><ele></ele><time>2014-4-20T16:55:3Z</time></trkpt>
<trkpt lat="44.83860700" lon="5.21491930"><ele></ele><time>2014-4-20T16:55:6Z</time></trkpt>
<trkpt lat="44.83769740" lon="5.21528360"><ele></ele><time>2014-4-20T16:55:9Z</time></trkpt>
<trkpt lat="44.83839510" lon="5.21614180"><ele></ele><time>2014-4-20T16:55:12Z</time></trkpt>
<trkpt lat="44.83704270" lon="5.21623020"><ele></ele><time>2014-4-20T16:55:15Z</time></trkpt>
<trkpt lat="44.83553440" lon="5.21539360"><ele></ele><time>2014-4-20T16:55:18Z</time></trkpt>
<trkpt lat="44.83609320" lon="5.21640270"><ele></ele><time>2014-4-20T16:55:21Z</time></trkpt>
<trkpt lat="44.83294430" lon="5.21462780"><ele></ele><time>2014-4-20T16:55:24Z</time></trkpt>
<trkpt lat="44.83394430" lon="5.21338280"><ele></ele><time>2014-4-20T16:55:27Z</time></trkpt>
<trkpt lat="44.83256450" lon="5.21365960"><ele></ele><time>2014-4-20T16:55:30Z</time></trkpt>
<trkpt lat="44.83166260" lon="5.21459350"><ele></ele><time>2014-4-20T16:55:33Z</time></trkpt>
<trkpt lat="44.83216710" lon="5.21509370"><ele></ele><time>2014-4-20T16:55:36Z</time></trkpt>
<trkpt lat="44.83078540" lon="5.21457990"><ele></ele><time>2014-4-20T16:55:39Z</time></trkpt>
<trkpt lat="44.83136260" lon="5.21315510"><ele></ele><time>2014-4-20T16:55:42Z</time></trkpt>
<trkpt lat="44.83022030" lon="5.21467730"><ele></ele><time>2014-4-20T16:55:45Z</time></trkpt>
<trkpt lat="44.83065200" lon="5.21365610"><ele></ele><time>2014-4-20T16:55:48Z</time></trkpt>
<trkpt lat="44.82968980" lon="5.21344850"><ele></ele><time>2014-4-20T16:55:51Z</time></trkpt>
<trkpt lat="44.82940840" lon="5.21302290"><ele></ele><time>2014-4-20T16:55:54Z</time></trkpt>
<trkpt lat="44.82758910" lon="5.21289770"><ele></ele><time>2014-4-20T16:55:57Z</time></trkpt>
<trkpt lat="44.82433740" lon="5.20988500"><ele></ele><time>2014-4-20T16:56:0Z</time></trkpt>
<trkpt lat="44.82465880" lon="5.21050220"><ele></ele><time>2014-4-20T16:56:3Z</time></trkpt>
<trkpt lat="44.82263040" lon="5.20976570"><ele></ele><time>2014-4-20T16:56:6Z</time></trkpt>
<trkpt lat="44.82277870" lon="5.21012100"><ele></ele><time>2014-4-20T16:56:9Z</time></trkpt>
<trkpt lat="44.82216460" lon="5.21037400"><ele></ele><time>2014-4-20T16:56:12Z</time></trkpt>
<trkpt lat="44.82050750" lon="5.21006760"><ele></ele><time>2014-4-20T16:56:15Z</time></trkpt>
<trkpt lat="44.82020790" lon="5.21033670"><ele></ele><time>2014-4-20T16:56:18Z</time></trkpt>
<trkpt lat="44.82211110" lon="5.21242630"><ele></ele><time>2014-4-20T16:56:21Z</time></trkpt>
<trkpt lat="44.82336430" lon="5.21441930"><ele></ele><time>2014-4-20T16:56:24Z</time></trkpt>
<trkpt lat="44.82362840" lon="5.21550790"><ele></ele><time>2014-4-20T16:56:27Z</time></trkpt>
<trkpt lat="44.82268510" lon="5.21716660"><ele></ele><time>2014-4-20T16:56:30Z</time></trkpt>
<trkpt lat="44.82267030" lon="5.21773490"><ele></ele><time>2014-4-20T16:56:33Z</time></trkpt>
<trkpt lat="44.82242720" lon="5.21756430"><ele></ele><time>2014-4-20T16:56:36Z</time></trkpt>
<trkpt lat="44.82250800" lon="5.21791630"><ele></ele><time>2014-4-20T16:56:39Z</time></trkpt>
<trkpt lat="44.82226330" lon="5.21780880"><ele></ele><time>2014-4-20T16:56:42Z</time></trkpt>
<trkpt lat="44.82223180" lon="5.21815500"><ele></ele><time>2014-4-20T16:56:45Z</time></trkpt>
<trkpt lat="44.82187640" lon="5.21797860"><ele></ele><time>2014-4-20T16:56:48Z</time></trkpt>
<trkpt lat="44.81968040" lon="5.21935130"><ele></ele><time>2014-4-20T16:56:51Z</time></trkpt>
<trkpt lat="44.81930280" lon="5.22002740"><ele></ele><time>2014-4-20T16:56:54Z</time></trkpt>
<trkpt lat="44.81904510" lon="5.22127860"><ele></ele><time>2014-4-20T16:56:57Z</time></trkpt>
<trkpt lat="44.81909530" lon="5.22279870"><ele></ele><time>2014-4-20T16:57:0Z</time></trkpt>
<trkpt lat="44.82012400" lon="5.22304150"><ele></ele><time>2014-4-20T16:57:3Z</time></trkpt>
<trkpt lat="44.81938120" lon="5.22477350"><ele></ele><time>2014-4-20T16:57:6Z</time></trkpt>
<trkpt lat="44.81906250" lon="5.22491520"><ele></ele><time>2014-4-20T16:57:9Z</time></trkpt>
<trkpt lat="44.81869370" lon="5.22439030"><ele></ele><time>2014-4-20T16:57:12Z</time></trkpt>
<trkpt lat="44.81646910" lon="5.22427540"><ele></ele><time>2014-4-20T16:57:15Z</time></trkpt>
<trkpt lat="44.81411980" lon="5.22462830"><ele></ele><time>2014-4-20T16:57:18Z</time></trkpt>
<trkpt lat="44.81187120" lon="5.22542890"><ele></ele><time>2014-4-20T16:57:21Z</time></trkpt>
<trkpt lat="44.81102230" lon="5.22519540"><ele></ele><time>2014-4-20T16:57:24Z</time></trkpt>
<trkpt lat="44.80908760" lon="5.22259840"><ele></ele><time>2014-4-20T16:57:27Z</time></trkpt>
<trkpt lat="44.80759530" lon="5.22201570"><ele></ele><time>2014-4-20T16:57:30Z</time></trkpt>
<trkpt lat="44.80611740" lon="5.22260320"><ele></ele><time>2014-4-20T16:57:33Z</time></trkpt>
<trkpt lat="44.80458420" lon="5.22186040"><ele></ele><time>2014-4-20T16:57:36Z</time></trkpt>
<trkpt lat="44.80401670" lon="5.22205240"><ele></ele><time>2014-4-20T16:57:39Z</time></trkpt>
<trkpt lat="44.80290530" lon="5.22066770"><ele></ele><time>2014-4-20T16:57:42Z</time></trkpt>
<trkpt lat="44.80184030" lon="5.22181370"><ele></ele><time>2014-4-20T16:57:45Z</time></trkpt>
<trkpt lat="44.80151600" lon="5.22302960"><ele></ele><time>2014-4-20T16:57:48Z</time></trkpt>
<trkpt lat="44.80074970" lon="5.22393810"><ele></ele><time>2014-4-20T16:57:51Z</time></trkpt>
<trkpt lat="44.80001070" lon="5.22380520"><ele></ele><time>2014-4-20T16:57:54Z</time></trkpt>
<trkpt lat="44.79941490" lon="5.22421690"><ele></ele><time>2014-4-20T16:57:57Z</time></trkpt>
<trkpt lat="44.79877850" lon="5.22532170"><ele></ele><time>2014-4-20T16:58:0Z</time></trkpt>
<trkpt lat="44.79832740" lon="5.22536160"><ele></ele><time>2014-4-20T16:58:3Z</time></trkpt>
<trkpt lat="44.79833570" lon="5.22504600"><ele></ele><time>2014-4-20T16:58:6Z</time></trkpt>
<trkpt lat="44.79716800" lon="5.22495420"><ele></ele><time>2014-4-20T16:58:9Z</time></trkpt>
<trkpt lat="44.79615250" lon="5.22420650"><ele></ele><time>2014-4-20T16:58:12Z</time></trkpt>
<trkpt lat="44.79618230" lon="5.22307040"><ele></ele><time>2014-4-20T16:58:15Z</time></trkpt>
<trkpt lat="44.79651010" lon="5.22258170"><ele></ele><time>2014-4-20T16:58:18Z</time></trkpt>
<trkpt lat="44.79593320" lon="5.22226750"><ele></ele><time>2014-4-20T16:58:21Z</time></trkpt>
<trkpt lat="44.79318280" lon="5.22247330"><ele></ele><time>2014-4-20T16:58:24Z</time></trkpt>
<trkpt lat="44.79301140" lon="5.22300160"><ele></ele><time>2014-4-20T16:58:27Z</time></trkpt>
<trkpt lat="44.79343280" lon="5.22409780"><ele></ele><time>2014-4-20T16:58:30Z</time></trkpt>
<trkpt lat="44.79333170" lon="5.22624130"><ele></ele><time>2014-4-20T16:58:33Z</time></trkpt>
<trkpt lat="44.79170070" lon="5.22751580"><ele></ele><time>2014-4-20T16:58:36Z</time></trkpt>
<trkpt lat="44.79054320" lon="5.22789840"><ele></ele><time>2014-4-20T16:58:39Z</time></trkpt>
<trkpt lat="44.79136240" lon="5.23012100"><ele></ele><time>2014-4-20T16:58:42Z</time></trkpt>
<trkpt lat="44.79152930" lon="5.23319470"><ele></ele><time>2014-4-20T16:58:45Z</time></trkpt>
<trkpt lat="44.79044230" lon="5.23260130"><ele></ele><time>2014-4-20T16:58:48Z</time></trkpt>
<trkpt lat="44.78963340" lon="5.23255940"><ele></ele><time>2014-4-20T16:58:51Z</time></trkpt>
<trkpt lat="44.78977080" lon="5.23332490"><ele></ele><time>2014-4-20T16:58:54Z</time></trkpt>
<trkpt lat="44.78857950" lon="5.23756040"><ele></ele><time>2014-4-20T16:58:57Z</time></trkpt>
<trkpt lat="44.78863280" lon="5.23810030"><ele></ele><time>2014-4-20T16:59:0Z</time></trkpt>
<trkpt lat="44.78994770" lon="5.23772610"><ele></ele><time>2014-4-20T16:59:3Z</time></trkpt>
<trkpt lat="44.79052040" lon="5.23990450"><ele></ele><time>2014-4-20T16:59:6Z</time></trkpt>
<trkpt lat="44.79181630" lon="5.24110930"><ele></ele><time>2014-4-20T16:59:9Z</time></trkpt>
<trkpt lat="44.79092260" lon="5.24343280"><ele></ele><time>2014-4-20T16:59:12Z</time></trkpt>
<trkpt lat="44.79084190" lon="5.24478730"><ele></ele><time>2014-4-20T16:59:15Z</time></trkpt>
<trkpt lat="44.79001470" lon="5.24629270"><ele></ele><time>2014-4-20T16:59:18Z</time></trkpt>
<trkpt lat="44.79037170" lon="5.24811230"><ele></ele><time>2014-4-20T16:59:21Z</time></trkpt>
<trkpt lat="44.79015110" lon="5.24879600"><ele></ele><time>2014-4-20T16:59:24Z</time></trkpt>
<trkpt lat="44.79041160" lon="5.24915710"><ele></ele><time>2014-4-20T16:59:27Z</time></trkpt>
<trkpt lat="44.79102990" lon="5.25045330"><ele></ele><time>2014-4-20T16:59:30Z</time></trkpt>
<trkpt lat="44.79058960" lon="5.25178910"><ele></ele><time>2014-4-20T16:59:33Z</time></trkpt>
<trkpt lat="44.78986290" lon="5.25544820"><ele></ele><time>2014-4-20T16:59:36Z</time></trkpt>
<trkpt lat="44.78952830" lon="5.25618910"><ele></ele><time>2014-4-20T16:59:39Z</time></trkpt>
<trkpt lat="44.78938420" lon="5.25738230"><ele></ele><time>2014-4-20T16:59:42Z</time></trkpt>
<trkpt lat="44.78990330" lon="5.25902090"><ele></ele><time>2014-4-20T16:59:45Z</time></trkpt>
<trkpt lat="44.78965770" lon="5.25979800"><ele></ele><time>2014-4-20T16:59:48Z</time></trkpt>
<trkpt lat="44.78942470" lon="5.26010180"><ele></ele><time>2014-4-20T16:59:51Z</time></trkpt>
<trkpt lat="44.78880140" lon="5.25984810"><ele></ele><time>2014-4-20T16:59:54Z</time></trkpt>
<trkpt lat="44.78714890" lon="5.25597020"><ele></ele><time>2014-4-20T16:59:57Z</time></trkpt>
<trkpt lat="44.78646660" lon="5.25539740"><ele></ele><time>2014-4-20T17:0:0Z</time></trkpt>
<trkpt lat="44.78631410" lon="5.25690610"><ele></ele><time>2014-4-20T17:0:3Z</time></trkpt>
<trkpt lat="44.78580160" lon="5.25586830"><ele></ele><time>2014-4-20T17:0:6Z</time></trkpt>
<trkpt lat="44.78558010" lon="5.25658340"><ele></ele><time>2014-4-20T17:0:9Z</time></trkpt>
<trkpt lat="44.78392420" lon="5.25453810"><ele></ele><time>2014-4-20T17:0:12Z</time></trkpt>
<trkpt lat="44.78221060" lon="5.25381690"><ele></ele><time>2014-4-20T17:0:15Z</time></trkpt>
<trkpt lat="44.78242370" lon="5.25341730"><ele></ele><time>2014-4-20T17:0:18Z</time></trkpt>
<trkpt lat="44.78154910" lon="5.25245550"><ele></ele><time>2014-4-20T17:0:21Z</time></trkpt>
<trkpt lat="44.78176050" lon="5.25297200"><ele></ele><time>2014-4-20T17:0:24Z</time></trkpt>
<trkpt lat="44.78121780" lon="5.25307010"><ele></ele><time>2014-4-20T17:0:27Z</time></trkpt>
<trkpt lat="44.78074750" lon="5.25554140"><ele></ele><time>2014-4-20T17:0:30Z</time></trkpt>
<trkpt lat="44.78013650" lon="5.25652050"><ele></ele><time>2014-4-20T17:0:33Z</time></trkpt>
<trkpt lat="44.77969800" lon="5.25608700"><ele></ele><time>2014-4-20T17:0:36Z</time></trkpt>
<trkpt lat="44.77960550" lon="5.25702990"><ele></ele><time>2014-4-20T17:0:39Z</time></trkpt>
<trkpt lat="44.77871340" lon="5.25673060"><ele></ele><time>2014-4-20T17:0:42Z</time></trkpt>
<trkpt lat="44.77790150" lon="5.26104790"><ele></ele><time>2014-4-20T17:0:45Z</time></trkpt>
<trkpt lat="44.77835140" lon="5.26359870"><ele></ele><time>2014-4-20T17:0:48Z</time></trkpt>
<trkpt lat="44.77705370" lon="5.26501560"><ele></ele><time>2014-4-20T17:0:51Z</time></trkpt>
<trkpt lat="44.77614240" lon="5.26544180"><ele></ele><time>2014-4-20T17:0:54Z</time></trkpt>
<trkpt lat="44.77467060" lon="5.26748130"><ele></ele><time>2014-4-20T17:0:57Z</time></trkpt>
<trkpt lat="44.77276420" lon="5.27063510"><ele></ele><time>2014-4-20T17:1:0Z</time></trkpt>
<trkpt lat="44.77206330" lon="5.27160920"><ele></ele><time>2014-4-20T17:1:3Z</time></trkpt>
<trkpt lat="44.77103110" lon="5.27234480"><ele></ele><time>2014-4-20T17:1:6Z</time></trkpt>
<trkpt lat="44.77022180" lon="5.27400800"><ele></ele><time>2014-4-20T17:1:9Z</time></trkpt>
<trkpt lat="44.77000270" lon="5.27800810"><ele></ele><time>2014-4-20T17:1:12Z</time></trkpt>
<trkpt lat="44.76857860" lon="5.28415580"><ele></ele><time>2014-4-20T17:1:15Z</time></trkpt>
<trkpt lat="44.76950510" lon="5.28568920"><ele></ele><time>2014-4-20T17:1:18Z</time></trkpt>
<trkpt lat="44.77024660" lon="5.28572820"><ele></ele><time>2014-4-20T17:1:21Z</time></trkpt>
<trkpt lat="44.77034130" lon="5.29059770"><ele></ele><time>2014-4-20T17:1:24Z</time></trkpt>
<trkpt lat="44.76924960" lon="5.29439370"><ele></ele><time>2014-4-20T17:1:27Z</time></trkpt>
<trkpt lat="44.76882650" lon="5.29506630"><ele></ele><time>2014-4-20T17:1:30Z</time></trkpt>
<trkpt lat="44.76802400" lon="5.29562400"><ele></ele><time>2014-4-20T17:1:33Z</time></trkpt>
<trkpt lat="44.76667470" lon="5.29811110"><ele></ele><time>2014-4-20T17:1:36Z</time></trkpt>
<trkpt lat="44.76478430" lon="5.29895860"><ele></ele><time>2014-4-20T17:1:39Z</time></trkpt>
<trkpt lat="44.76460750" lon="5.29967570"><ele></ele><time>2014-4-20T17:1:42Z</time></trkpt>
<trkpt lat="44.76471610" lon="5.30233460"><ele></ele><time>2014-4-20T17:1:45Z</time></trkpt>
<trkpt lat="44.76532400" lon="5.30483040"><ele></ele><time>2014-4-20T17:1:48Z</time></trkpt>
<trkpt lat="44.76525820" lon="5.30643780"><ele></ele><time>2014-4-20T17:1:51Z</time></trkpt>
<trkpt lat="44.76785120" lon="5.31125010"><ele></ele><time>2014-4-20T17:1:54Z</time></trkpt>
<trkpt lat="44.76804050" lon="5.31340810"><ele></ele><time>2014-4-20T17:1:57Z</time></trkpt>
<trkpt lat="44.76962840" lon="5.31876760"><ele></ele><time>2014-4-20T17:2:0Z</time></trkpt>
<trkpt lat="44.76971260" lon="5.31981450"><ele></ele><time>2014-4-20T17:2:3Z</time></trkpt>
<trkpt lat="44.76945630" lon="5.32096960"><ele></ele><time>2014-4-20T17:2:6Z</time></trkpt>
<trkpt lat="44.76847790" lon="5.32303380"><ele></ele><time>2014-4-20T17:2:9Z</time></trkpt>
<trkpt lat="44.76827980" lon="5.32536060"><ele></ele><time>2014-4-20T17:2:12Z</time></trkpt>
<trkpt lat="44.76836400" lon="5.32972410"><ele></ele><time>2014-4-20T17:2:15Z</time></trkpt>
<trkpt lat="44.76747380" lon="5.33267730"><ele></ele><time>2014-4-20T17:2:18Z</time></trkpt>
<trkpt lat="44.76786150" lon="5.33497230"><ele></ele><time>2014-4-20T17:2:21Z</time></trkpt>
<trkpt lat="44.76938560" lon="5.33767570"><ele></ele><time>2014-4-20T17:2:24Z</time></trkpt>
<trkpt lat="44.76776980" lon="5.34494880"><ele></ele><time>2014-4-20T17:2:27Z</time></trkpt>
<trkpt lat="44.76837420" lon="5.34753990"><ele></ele><time>2014-4-20T17:2:30Z</time></trkpt>
<trkpt lat="44.76855160" lon="5.35010800"><ele></ele><time>2014-4-20T17:2:33Z</time></trkpt>
<trkpt lat="44.76696340" lon="5.35223360"><ele></ele><time>2014-4-20T17:2:36Z</time></trkpt>
<trkpt lat="44.76622950" lon="5.34944600"><ele></ele><time>2014-4-20T17:2:39Z</time></trkpt>
<trkpt lat="44.76556060" lon="5.34922050"><ele></ele><time>2014-4-20T17:2:42Z</time></trkpt>
<trkpt lat="44.76405260" lon="5.35005530"><ele></ele><time>2014-4-20T17:2:45Z</time></trkpt>
<trkpt lat="44.76329390" lon="5.34982500"><ele></ele><time>2014-4-20T17:2:48Z</time></trkpt>
<trkpt lat="44.76137280" lon="5.35013220"><ele></ele><time>2014-4-20T17:2:51Z</time></trkpt>
<trkpt lat="44.75998070" lon="5.35166790"><ele></ele><time>2014-4-20T17:2:54Z</time></trkpt>
<trkpt lat="44.75896710" lon="5.35335040"><ele></ele><time>2014-4-20T17:2:57Z</time></trkpt>
<trkpt lat="44.75829320" lon="5.35659860"><ele></ele><time>2014-4-20T17:3:0Z</time></trkpt>
<trkpt lat="44.75690530" lon="5.36126080"><ele></ele><time>2014-4-20T17:3:3Z</time></trkpt>
<trkpt lat="44.75620440" lon="5.36302310"><ele></ele><time>2014-4-20T17:3:6Z</time></trkpt>
<trkpt lat="44.75562700" lon="5.36602360"><ele></ele><time>2014-4-20T17:3:9Z</time></trkpt>
<trkpt lat="44.75666310" lon="5.36598490"><ele></ele><time>2014-4-20T17:3:12Z</time></trkpt>
<trkpt lat="44.75542820" lon="5.36670760"><ele></ele><time>2014-4-20T17:3:15Z</time></trkpt>
<trkpt lat="44.75459070" lon="5.36770440"><ele></ele><time>2014-4-20T17:3:18Z</time></trkpt>
<trkpt lat="44.75373690" lon="5.36765820"><ele></ele><time>2014-4-20T17:3:21Z</time></trkpt>
<trkpt lat="44.75238620" lon="5.36685880"><ele></ele><time>2014-4-20T17:3:24Z</time></trkpt>
<trkpt lat="44.75097390" lon="5.36994010"><ele></ele><time>2014-4-20T17:3:27Z</time></trkpt>
<trkpt lat="44.75080520" lon="5.37116250"><ele></ele><time>2014-4-20T17:3:30Z</time></trkpt>
<trkpt lat="44.75146530" lon="5.37252460"><ele></ele><time>2014-4-20T17:3:33Z</time></trkpt>
<trkpt lat="44.75043510" lon="5.37316340"><ele></ele><time>2014-4-20T17:3:36Z</time></trkpt>
<trkpt lat="44.74940310" lon="5.37468630"><ele></ele><time>2014-4-20T17:3:39Z</time></trkpt>
<trkpt lat="44.74830930" lon="5.37844770"><ele></ele><time>2014-4-20T17:3:42Z</time></trkpt>
<trkpt lat="44.74841960" lon="5.38015880"><ele></ele><time>2014-4-20T17:3:45Z</time></trkpt>
<trkpt lat="44.74614330" lon="5.38436090"><ele></ele><time>2014-4-20T17:3:48Z</time></trkpt>
<trkpt lat="44.74609190" lon="5.38622110"><ele></ele><time>2014-4-20T17:3:51Z</time></trkpt>
<trkpt lat="44.74337040" lon="5.39024060"><ele></ele><time>2014-4-20T17:3:54Z</time></trkpt>
<trkpt lat="44.73970180" lon="5.39351350"><ele></ele><time>2014-4-20T17:3:57Z</time></trkpt>
<trkpt lat="44.73885280" lon="5.39491940"><ele></ele><time>2014-4-20T17:4:0Z</time></trkpt>
<trkpt lat="44.73790220" lon="5.39755110"><ele></ele><time>2014-4-20T17:4:3Z</time></trkpt>
<trkpt lat="44.73712340" lon="5.39804520"><ele></ele><time>2014-4-20T17:4:6Z</time></trkpt>
<trkpt lat="44.73624440" lon="5.40052270"><ele></ele><time>2014-4-20T17:4:9Z</time></trkpt>
<trkpt lat="44.73600460" lon="5.40186710"><ele></ele><time>2014-4-20T17:4:12Z</time></trkpt>
<trkpt lat="44.73628700" lon="5.40222990"><ele></ele><time>2014-4-20T17:4:15Z</time></trkpt>
<trkpt lat="44.73592140" lon="5.40243080"><ele></ele><time>2014-4-20T17:4:18Z</time></trkpt>
<trkpt lat="44.73616060" lon="5.40272810"><ele></ele><time>2014-4-20T17:4:21Z</time></trkpt>
<trkpt lat="44.73501790" lon="5.40336000"><ele></ele><time>2014-4-20T17:4:24Z</time></trkpt>
<trkpt lat="44.73271350" lon="5.40045590"><ele></ele><time>2014-4-20T17:4:27Z</time></trkpt>
<trkpt lat="44.73183780" lon="5.39876640"><ele></ele><time>2014-4-20T17:4:30Z</time></trkpt>
<trkpt lat="44.73104940" lon="5.39960720"><ele></ele><time>2014-4-20T17:4:33Z</time></trkpt>
<trkpt lat="44.72980580" lon="5.39739270"><ele></ele><time>2014-4-20T17:4:36Z</time></trkpt>
<trkpt lat="44.72913760" lon="5.39795590"><ele></ele><time>2014-4-20T17:4:39Z</time></trkpt>
<trkpt lat="44.72781840" lon="5.39684220"><ele></ele><time>2014-4-20T17:4:42Z</time></trkpt>
<trkpt lat="44.72726950" lon="5.39715940"><ele></ele><time>2014-4-20T17:4:45Z</time></trkpt>
<trkpt lat="44.72718340" lon="5.39863830"><ele></ele><time>2014-4-20T17:4:48Z</time></trkpt>
<trkpt lat="44.72770520" lon="5.39929810"><ele></ele><time>2014-4-20T17:4:51Z</time></trkpt>
<trkpt lat="44.72813230" lon="5.40093130"><ele></ele><time>2014-4-20T17:4:54Z</time></trkpt>
<trkpt lat="44.72821980" lon="5.40264060"><ele></ele><time>2014-4-20T17:4:57Z</time></trkpt>
<trkpt lat="44.72718470" lon="5.40425690"><ele></ele><time>2014-4-20T17:5:0Z</time></trkpt>
<trkpt lat="44.72691140" lon="5.40679870"><ele></ele><time>2014-4-20T17:5:3Z</time></trkpt>
<trkpt lat="44.72587140" lon="5.40778330"><ele></ele><time>2014-4-20T17:5:6Z</time></trkpt>
<trkpt lat="44.72519210" lon="5.40793540"><ele></ele><time>2014-4-20T17:5:9Z</time></trkpt>
<trkpt lat="44.72508010" lon="5.40710860"><ele></ele><time>2014-4-20T17:5:12Z</time></trkpt>
<trkpt lat="44.72385760" lon="5.40656820"><ele></ele><time>2014-4-20T17:5:15Z</time></trkpt>
<trkpt lat="44.72289640" lon="5.40714680"><ele></ele><time>2014-4-20T17:5:18Z</time></trkpt>
<trkpt lat="44.72154210" lon="5.40729350"><ele></ele><time>2014-4-20T17:5:21Z</time></trkpt>
<trkpt lat="44.71953220" lon="5.41078120"><ele></ele><time>2014-4-20T17:5:24Z</time></trkpt>
<trkpt lat="44.71827760" lon="5.41219570"><ele></ele><time>2014-4-20T17:5:27Z</time></trkpt>
<trkpt lat="44.71795120" lon="5.41179910"><ele></ele><time>2014-4-20T17:5:30Z</time></trkpt>
<trkpt lat="44.71694940" lon="5.41221750"><ele></ele><time>2014-4-20T17:5:33Z</time></trkpt>
<trkpt lat="44.71645860" lon="5.41206430"><ele></ele><time>2014-4-20T17:5:36Z</time></trkpt>
<trkpt lat="44.71323930" lon="5.41453840"><ele></ele><time>2014-4-20T17:5:39Z</time></trkpt>
<trkpt lat="44.71303890" lon="5.41607370"><ele></ele><time>2014-4-20T17:5:42Z</time></trkpt>
<trkpt lat="44.71143570" lon="5.41626960"><ele></ele><time>2014-4-20T17:5:45Z</time></trkpt>
<trkpt lat="44.71144060" lon="5.41851030"><ele></ele><time>2014-4-20T17:5:48Z</time></trkpt>
<trkpt lat="44.71059200" lon="5.42149300"><ele></ele><time>2014-4-20T17:5:51Z</time></trkpt>
<trkpt lat="44.71131910" lon="5.42686610"><ele></ele><time>2014-4-20T17:5:54Z</time></trkpt>
<trkpt lat="44.71214580" lon="5.42867890"><ele></ele><time>2014-4-20T17:5:57Z</time></trkpt>
<trkpt lat="44.71265180" lon="5.43069490"><ele></ele><time>2014-4-20T17:6:0Z</time></trkpt>
<trkpt lat="44.71205610" lon="5.43107230"><ele></ele><time>2014-4-20T17:6:3Z</time></trkpt>
<trkpt lat="44.70992170" lon="5.43095440"><ele></ele><time>2014-4-20T17:6:6Z</time></trkpt>
<trkpt lat="44.70898390" lon="5.42989280"><ele></ele><time>2014-4-20T17:6:9Z</time></trkpt>
<trkpt lat="44.70626090" lon="5.42990030"><ele></ele><time>2014-4-20T17:6:12Z</time></trkpt>
<trkpt lat="44.70594110" lon="5.43007190"><ele></ele><time>2014-4-20T17:6:15Z</time></trkpt>
<trkpt lat="44.70582830" lon="5.43328420"><ele></ele><time>2014-4-20T17:6:18Z</time></trkpt>
<trkpt lat="44.70541210" lon="5.43288250"><ele></ele><time>2014-4-20T17:6:21Z</time></trkpt>
<trkpt lat="44.70544110" lon="5.43345210"><ele></ele><time>2014-4-20T17:6:24Z</time></trkpt>
<trkpt lat="44.70441850" lon="5.43380570"><ele></ele><time>2014-4-20T17:6:27Z</time></trkpt>
<trkpt lat="44.70355360" lon="5.43495690"><ele></ele><time>2014-4-20T17:6:30Z</time></trkpt>
<trkpt lat="44.70216710" lon="5.43544820"><ele></ele><time>2014-4-20T17:6:33Z</time></trkpt>
<trkpt lat="44.70150880" lon="5.43645300"><ele></ele><time>2014-4-20T17:6:36Z</time></trkpt>
<trkpt lat="44.70124360" lon="5.43628060"><ele></ele><time>2014-4-20T17:6:39Z</time></trkpt>
<trkpt lat="44.70064560" lon="5.43514320"><ele></ele><time>2014-4-20T17:6:42Z</time></trkpt>
<trkpt lat="44.70012790" lon="5.43514610"><ele></ele><time>2014-4-20T17:6:45Z</time></trkpt>
<trkpt lat="44.69971230" lon="5.43632210"><ele></ele><time>2014-4-20T17:6:48Z</time></trkpt>
<trkpt lat="44.69893780" lon="5.43665780"><ele></ele><time>2014-4-20T17:6:51Z</time></trkpt>
<trkpt lat="44.69868210" lon="5.43774790"><ele></ele><time>2014-4-20T17:6:54Z</time></trkpt>
<trkpt lat="44.69838910" lon="5.43776320"><ele></ele><time>2014-4-20T17:6:57Z</time></trkpt>
<trkpt lat="44.69789420" lon="5.43615840"><ele></ele><time>2014-4-20T17:7:0Z</time></trkpt>
<trkpt lat="44.69710880" lon="5.43608340"><ele></ele><time>2014-4-20T17:7:3Z</time></trkpt>
<trkpt lat="44.69634240" lon="5.43212910"><ele></ele><time>2014-4-20T17:7:6Z</time></trkpt>
<trkpt lat="44.69565230" lon="5.43026120"><ele></ele><time>2014-4-20T17:7:9Z</time></trkpt>
<trkpt lat="44.69353980" lon="5.43096480"><ele></ele><time>2014-4-20T17:7:12Z</time></trkpt>
<trkpt lat="44.69272730" lon="5.43265490"><ele></ele><time>2014-4-20T17:7:15Z</time></trkpt>
<trkpt lat="44.69170650" lon="5.43294560"><ele></ele><time>2014-4-20T17:7:18Z</time></trkpt>
<trkpt lat="44.69117820" lon="5.43332650"><ele></ele><time>2014-4-20T17:7:21Z</time></trkpt>
<trkpt lat="44.69106360" lon="5.43420340"><ele></ele><time>2014-4-20T17:7:24Z</time></trkpt>
<trkpt lat="44.69142690" lon="5.43488590"><ele></ele><time>2014-4-20T17:7:27Z</time></trkpt>
<trkpt lat="44.69106160" lon="5.43587520"><ele></ele><time>2014-4-20T17:7:30Z</time></trkpt>
<trkpt lat="44.69154080" lon="5.43643790"><ele></ele><time>2014-4-20T17:7:33Z</time></trkpt>
<trkpt lat="44.69133150" lon="5.43907620"><ele></ele><time>2014-4-20T17:7:36Z</time></trkpt>
<trkpt lat="44.69177760" lon="5.44001570"><ele></ele><time>2014-4-20T17:7:39Z</time></trkpt>
<trkpt lat="44.69156110" lon="5.44050840"><ele></ele><time>2014-4-20T17:7:42Z</time></trkpt>
<trkpt lat="44.69201430" lon="5.44119600"><ele></ele><time>2014-4-20T17:7:45Z</time></trkpt>
<trkpt lat="44.69150520" lon="5.44249270"><ele></ele><time>2014-4-20T17:7:48Z</time></trkpt>
<trkpt lat="44.69236010" lon="5.44329720"><ele></ele><time>2014-4-20T17:7:51Z</time></trkpt>
<trkpt lat="44.69259330" lon="5.44460350"><ele></ele><time>2014-4-20T17:7:54Z</time></trkpt>
<trkpt lat="44.69248650" lon="5.44519700"><ele></ele><time>2014-4-20T17:7:57Z</time></trkpt>
<trkpt lat="44.69164280" lon="5.44559180"><ele></ele><time>2014-4-20T17:8:0Z</time></trkpt>
<trkpt lat="44.69074930" lon="5.44775040"><ele></ele><time>2014-4-20T17:8:3Z</time></trkpt>
<trkpt lat="44.69004280" lon="5.45045560"><ele></ele><time>2014-4-20T17:8:6Z</time></trkpt>
<trkpt lat="44.69025320" lon="5.45097200"><ele></ele><time>2014-4-20T17:8:9Z</time></trkpt>
<trkpt lat="44.68939680" lon="5.45499370"><ele></ele><time>2014-4-20T17:8:12Z</time></trkpt>
<trkpt lat="44.68921570" lon="5.45662390"><ele></ele><time>2014-4-20T17:8:15Z</time></trkpt>
<trkpt lat="44.68950310" lon="5.46077220"><ele></ele><time>2014-4-20T17:8:18Z</time></trkpt>
<trkpt lat="44.69058150" lon="5.46717300"><ele></ele><time>2014-4-20T17:8:21Z</time></trkpt>
<trkpt lat="44.69162600" lon="5.47000740"><ele></ele><time>2014-4-20T17:8:24Z</time></trkpt>
<trkpt lat="44.69250310" lon="5.47002480"><ele></ele><time>2014-4-20T17:8:27Z</time></trkpt>
<trkpt lat="44.69233550" lon="5.47749200"><ele></ele><time>2014-4-20T17:8:30Z</time></trkpt>
<trkpt lat="44.69345430" lon="5.48086720"><ele></ele><time>2014-4-20T17:8:33Z</time></trkpt>
<trkpt lat="44.69456240" lon="5.48225430"><ele></ele><time>2014-4-20T17:8:36Z</time></trkpt>
<trkpt lat="44.69508620" lon="5.48518620"><ele></ele><time>2014-4-20T17:8:39Z</time></trkpt>
</trkseg></trk></gpx>